Time;durP1;ratioP1;P1;durP2;ratioP2;P2;SDS_P1;SDS_P2;PMS_P1;PMS_P2;Temp;Humidity;BMP_temperature;BMP_pressure;BME280_temperature;BME280_humidity;BME280_pressure;Samples;Min_cycle;Max_cycle;Signal;HPM_P1;HPM_P2
2022/09/27 00:02:34;;;;;;;9.20;2.10;;;;;;;18.42;nan;101523.84;6217368;23;20473;-92
2022/09/27 00:08:38;;;;;;;6.40;1.33;;;;;;;18.36;nan;101521.13;6217851;23;20507;-93
2022/09/27 00:11:34;;;;;;;9.00;1.83;;;;;;;18.34;nan;101524.13;6191402;23;20442;-94
2022/09/27 00:14:11;;;;;;;13.13;2.23;;;;;;;18.34;nan;101520.50;6191518;23;20940;-93
2022/09/27 00:16:47;;;;;;;8.00;1.77;;;;;;;18.31;nan;101521.81;6191256;23;20509;-94
2022/09/27 00:19:34;;;;;;;11.63;2.07;;;;;;;18.30;nan;101514.59;6167618;23;20780;-93
2022/09/27 00:22:09;;;;;;;16.43;2.00;;;;;;;18.26;nan;101518.91;6191241;23;20411;-93
2022/09/27 00:25:00;;;;;;;8.50;1.87;;;;;;;18.24;nan;101526.56;6217342;23;20467;-93
2022/09/27 00:28:02;;;;;;;9.97;2.10;;;;;;;18.25;nan;101520.81;6191828;23;20395;-93
2022/09/27 00:31:00;;;;;;;7.73;2.07;;;;;;;18.23;nan;101516.56;6191245;23;20411;-92
2022/09/27 00:34:09;;;;;;;8.97;1.23;;;;;;;18.20;nan;101514.25;6191617;23;20467;-93
2022/09/27 00:36:38;;;;;;;13.33;1.87;;;;;;;18.17;nan;101520.22;6217477;23;20488;-93
2022/09/27 00:39:11;;;;;;;10.07;1.90;;;;;;;18.14;nan;101517.91;6166249;23;21026;-93
2022/09/27 00:42:00;;;;;;;16.83;2.13;;;;;;;18.17;nan;101525.78;6167190;23;20684;-93
2022/09/27 00:45:02;;;;;;;11.50;2.50;;;;;;;18.15;nan;101526.00;6190549;23;20449;-93
2022/09/27 00:48:02;;;;;;;10.20;1.87;;;;;;;18.13;nan;101524.50;6217665;23;20921;-92
2022/09/27 00:50:45;;;;;;;11.80;2.03;;;;;;;18.12;nan;101531.13;6164257;23;20462;-93
2022/09/27 00:53:48;;;;;;;9.80;2.00;;;;;;;18.11;nan;101527.50;6169941;23;20468;-93
2022/09/27 00:56:49;;;;;;;12.33;2.60;;;;;;;18.18;nan;101535.75;6167320;23;20474;-93
2022/09/27 00:59:34;;;;;;;13.40;2.70;;;;;;;18.08;nan;101533.50;6166418;23;20469;-91
2022/09/27 01:05:49;;;;;;;13.50;2.90;;;;;;;18.01;nan;101526.31;6217724;23;20387;-92
2022/09/27 01:08:32;;;;;;;11.13;2.00;;;;;;;18.02;nan;101528.00;6142313;23;20479;-92
2022/09/27 01:14:52;;;;;;;8.00;1.83;;;;;;;17.97;nan;101530.59;6217651;23;20417;-92
2022/09/27 01:28:25;;;;;;;5.27;1.60;;;;;;;17.90;nan;101525.94;6217460;23;20355;-94
2022/09/27 01:31:19;;;;;;;10.57;1.77;;;;;;;17.90;nan;101517.66;6197519;23;20411;-93
2022/09/27 01:33:55;;;;;;;13.03;1.83;;;;;;;17.90;nan;101516.81;6201291;23;20886;-94
2022/09/27 01:36:43;;;;;;;12.23;2.10;;;;;;;17.87;nan;101517.28;6167101;23;20518;-93
2022/09/27 01:39:53;;;;;;;4.50;1.43;;;;;;;17.83;nan;101522.41;6217147;23;20462;-92
2022/09/27 01:42:54;;;;;;;16.40;2.47;;;;;;;17.81;nan;101519.00;6216444;23;20415;-92
2022/09/27 01:45:35;;;;;;;8.00;1.67;;;;;;;17.75;nan;101516.28;6219496;22;20961;-93
2022/09/27 01:52:22;;;;;;;9.30;1.70;;;;;;;17.78;nan;101521.38;6247782;23;20393;-92
2022/09/27 01:55:07;;;;;;;4.97;1.30;;;;;;;17.78;nan;101527.75;6195959;23;20845;-93
2022/09/27 01:57:39;;;;;;;5.77;1.40;;;;;;;17.78;nan;101519.44;6195591;23;20461;-91
2022/09/27 02:00:20;;;;;;;12.20;2.10;;;;;;;17.72;nan;101517.56;6196734;23;20832;-93
2022/09/27 02:03:14;;;;;;;9.53;2.13;;;;;;;17.75;nan;101522.66;6171707;23;20375;-92
2022/09/27 02:06:28;;;;;;;9.50;1.40;;;;;;;17.75;nan;101517.13;6196252;23;20482;-93
2022/09/27 02:09:40;;;;;;;9.20;1.63;;;;;;;17.74;nan;101514.56;6220181;23;20434;-93
2022/09/27 02:12:10;;;;;;;5.03;1.67;;;;;;;17.71;nan;101526.91;6219932;23;20407;-94
2022/09/27 02:22:03;;;;;;;7.10;1.90;;;;;;;17.69;nan;101509.72;6247477;23;20474;-92
2022/09/27 02:24:48;;;;;;;5.67;1.33;;;;;;;17.68;nan;101516.34;6220339;23;20468;-93
2022/09/27 02:37:59;;;;;;;10.53;1.47;;;;;;;17.60;nan;101524.84;6246470;23;20403;-93
2022/09/27 02:40:54;;;;;;;7.20;1.33;;;;;;;17.64;nan;101520.59;6194877;23;20402;-93
2022/09/27 02:44:05;;;;;;;10.93;1.63;;;;;;;17.61;nan;101518.25;6196502;23;20685;-92
2022/09/27 02:47:02;;;;;;;2.90;1.30;;;;;;;17.60;nan;101517.41;6220051;23;20736;-92
2022/09/27 02:53:14;;;;;;;5.13;1.43;;;;;;;17.54;nan;101509.13;6247165;23;20353;-93
2022/09/27 02:56:32;;;;;;;5.17;1.10;;;;;;;17.55;nan;101513.59;6195516;23;20460;-94
2022/09/27 02:59:43;;;;;;;9.30;2.03;;;;;;;17.53;nan;101516.56;6246063;23;20407;-93
2022/09/27 03:02:51;;;;;;;6.13;1.40;;;;;;;17.52;nan;101516.78;6221078;23;20437;-94
2022/09/27 03:05:57;;;;;;;4.63;1.20;;;;;;;17.48;nan;101521.09;6220713;23;20387;-94
2022/09/27 03:08:37;;;;;;;7.00;1.20;;;;;;;17.46;nan;101510.25;6150421;23;20493;-93
2022/09/27 03:11:32;;;;;;;9.70;1.00;;;;;;;17.47;nan;101514.72;6171726;23;20491;-92
2022/09/27 03:14:19;;;;;;;13.27;1.50;;;;;;;17.48;nan;101510.88;6197409;23;20414;-93
2022/09/27 03:16:48;;;;;;;6.13;1.63;;;;;;;17.43;nan;101504.31;6197342;23;20410;-92
2022/09/27 03:19:16;;;;;;;10.33;1.47;;;;;;;17.42;nan;101506.22;6172765;23;20401;-93
2022/09/27 03:21:54;;;;;;;4.83;1.60;;;;;;;17.44;nan;101509.63;6172526;23;20425;-94
2022/09/27 03:28:12;;;;;;;3.70;1.40;;;;;;;17.41;nan;101515.59;6248787;23;20370;-93
2022/09/27 03:30:53;;;;;;;4.97;1.53;;;;;;;17.37;nan;101502.41;6222239;23;20509;-92
2022/09/27 03:34:16;;;;;;;7.23;1.30;;;;;;;17.40;nan;101500.06;6172621;23;20405;-92
2022/09/27 03:36:52;;;;;;;6.63;1.30;;;;;;;17.36;nan;101515.38;6221742;23;20410;-93
2022/09/27 03:40:00;;;;;;;11.70;1.67;;;;;;;17.32;nan;101516.88;6197334;23;20474;-93
2022/09/27 03:46:08;;;;;;;7.20;1.60;;;;;;;17.22;nan;101514.59;6248580;23;20465;-93
2022/09/27 03:48:50;;;;;;;9.30;2.07;;;;;;;17.21;nan;101515.66;6172413;23;20405;-94
2022/09/27 03:51:54;;;;;;;5.60;1.43;;;;;;;17.21;nan;101514.81;6197126;23;20459;-93
2022/09/27 03:54:23;;;;;;;8.87;1.30;;;;;;;17.18;nan;101510.56;6197688;23;20470;-92
2022/09/27 03:56:52;;;;;;;5.80;2.07;;;;;;;17.17;nan;101517.16;6173081;23;20777;-93
2022/09/27 03:59:28;;;;;;;3.90;1.07;;;;;;;17.17;nan;101513.56;6196707;23;20460;-92
2022/09/27 04:02:09;;;;;;;5.57;1.00;;;;;;;17.14;nan;101514.84;6197623;23;20471;-92
2022/09/27 04:05:06;;;;;;;6.73;1.40;;;;;;;17.16;nan;101517.38;6173033;23;20462;-93
2022/09/27 04:08:10;;;;;;;7.03;1.80;;;;;;;17.13;nan;101515.91;6222296;23;20518;-93
2022/09/27 04:10:40;;;;;;;9.90;1.70;;;;;;;17.10;nan;101504.47;6197080;23;20434;-93
2022/09/27 04:16:48;;;;;;;11.17;1.33;;;;;;;17.05;nan;101515.31;6248528;23;20401;-94
2022/09/27 04:26:19;;;;;;;5.00;1.47;;;;;;;17.09;nan;101508.28;6248358;23;20365;-92
2022/09/27 04:29:09;;;;;;;6.60;1.90;;;;;;;17.11;nan;101534.63;6196887;23;20421;-93
2022/09/27 04:31:36;;;;;;;7.60;1.60;;;;;;;17.11;nan;101525.50;6221911;23;20387;-93
2022/09/27 04:36:25;;;;;;;5.50;1.80;;;;;;;17.12;nan;101521.69;6197270;23;20418;-93
2022/09/27 04:37:11;;;;;;;5.70;1.30;;;;;;;17.11;nan;101522.75;6227057;23;20414;-94
2022/09/27 04:39:39;;;;;;;10.50;2.37;;;;;;;17.16;nan;101529.28;6171190;23;20717;-93
2022/09/27 04:45:53;;;;;;;11.13;2.13;;;;;;;17.16;nan;101529.28;6247792;23;20425;-92
2022/09/27 04:48:27;;;;;;;7.87;2.50;;;;;;;17.12;nan;101518.91;6172506;23;20992;-93
2022/09/27 04:57:53;;;;;;;3.73;1.77;;;;;;;17.17;nan;101547.56;6248308;23;20544;-94
2022/09/27 05:04:09;;;;;;;7.23;1.67;;;;;;;17.13;nan;101539.91;6248028;23;20791;-92
2022/09/27 05:06:50;;;;;;;11.50;1.90;;;;;;;17.22;nan;101538.63;6196865;23;20553;-93
2022/09/27 05:09:46;;;;;;;12.40;1.90;;;;;;;17.14;nan;101541.63;6197999;23;20442;-94
2022/09/27 05:12:54;;;;;;;13.73;1.80;;;;;;;17.12;nan;101550.16;6196080;23;20480;-93
2022/09/27 05:15:24;;;;;;;11.07;2.00;;;;;;;17.13;nan;101545.44;6225892;23;20948;-93
2022/09/27 05:17:52;;;;;;;11.60;2.53;;;;;;;17.12;nan;101544.63;6225922;23;20383;-95
2022/09/27 05:21:00;;;;;;;6.30;1.70;;;;;;;17.16;nan;101550.53;6171135;23;20402;-94
2022/09/27 05:27:17;;;;;;;9.20;2.07;;;;;;;17.08;nan;101559.94;6247630;23;20425;-94
2022/09/27 05:29:56;;;;;;;7.57;1.80;;;;;;;17.07;nan;101563.75;6197934;23;20948;-93
2022/09/27 05:32:23;;;;;;;15.57;2.43;;;;;;;17.09;nan;101555.25;6196726;23;20489;-93
2022/09/27 05:34:52;;;;;;;7.87;1.50;;;;;;;17.08;nan;101559.94;6171418;23;20481;-92
2022/09/27 05:37:20;;;;;;;12.53;2.20;;;;;;;17.07;nan;101563.75;6196855;23;20407;-94
2022/09/27 05:39:48;;;;;;;6.00;1.60;;;;;;;17.04;nan;101564.19;6220247;23;20410;-93
2022/09/27 05:42:18;;;;;;;5.67;1.80;;;;;;;17.05;nan;101571.41;6196630;23;20466;-93
2022/09/27 05:45:14;;;;;;;8.47;1.67;;;;;;;17.08;nan;101570.97;6172954;23;20394;-94
2022/09/27 05:47:41;;;;;;;11.97;2.20;;;;;;;17.03;nan;101584.56;6196363;23;20418;-93
2022/09/27 05:54:21;;;;;;;7.00;1.53;;;;;;;16.99;nan;101590.75;6247045;23;20431;-93
2022/09/27 06:04:23;;;;;;;8.83;1.70;;;;;;;16.90;nan;101570.81;6247587;23;20359;-92
2022/09/27 06:10:31;;;;;;;14.77;2.50;;;;;;;16.91;nan;101586.31;6247343;23;20912;-92
2022/09/27 06:13:26;;;;;;;8.57;2.27;;;;;;;16.90;nan;101590.13;6172587;23;20411;-92
2022/09/27 06:16:02;;;;;;;12.30;1.60;;;;;;;16.85;nan;101584.41;6221252;23;21140;-92
2022/09/27 06:22:11;;;;;;;10.40;1.90;;;;;;;16.94;nan;101585.84;6246983;23;20389;-93
2022/09/27 06:28:18;;;;;;;11.27;2.10;;;;;;;16.92;nan;101588.00;6245890;23;20405;-93
2022/09/27 06:30:51;;;;;;;10.30;1.73;;;;;;;16.93;nan;101600.75;6196090;23;20439;-94
2022/09/27 06:36:49;;;;;;;12.43;2.60;;;;;;;16.87;nan;101588.66;6247627;23;20390;-95
2022/09/27 06:39:33;;;;;;;15.93;2.23;;;;;;;16.94;nan;101602.41;6171745;23;20405;-95
2022/09/27 06:42:29;;;;;;;10.20;1.97;;;;;;;16.95;nan;101608.78;6195953;23;20383;-96
2022/09/27 06:44:57;;;;;;;10.40;1.60;;;;;;;16.95;nan;101615.16;6219041;23;20394;-90
2022/09/27 06:47:26;;;;;;;8.33;1.93;;;;;;;16.97;nan;101612.19;6188322;23;20443;-90
2022/09/27 06:49:55;;;;;;;14.87;2.13;;;;;;;16.98;nan;101617.50;6167013;23;20976;-89
2022/09/27 06:52:23;;;;;;;16.07;1.90;;;;;;;17.03;nan;101628.78;6215590;23;20419;-90
2022/09/27 06:54:50;;;;;;;6.43;1.60;;;;;;;17.00;nan;101614.53;6190402;23;20482;-90
2022/09/27 07:00:22;;;;;;;12.63;2.10;;;;;;;17.10;nan;101628.78;6166458;23;20411;-90
2022/09/27 07:00:22;;;;;;;17.07;2.27;;;;;;;17.11;nan;101636.00;6194374;23;20407;-90
2022/09/27 07:02:59;;;;;;;10.77;1.90;;;;;;;17.11;nan;101631.31;6193618;23;20470;-91
2022/09/27 07:05:58;;;;;;;6.63;2.10;;;;;;;17.18;nan;101632.13;6217865;23;20403;-90
2022/09/27 07:08:28;;;;;;;11.60;2.53;;;;;;;17.11;nan;101620.28;6223642;23;20902;-90
2022/09/27 07:11:02;;;;;;;9.30;2.97;;;;;;;17.22;nan;101633.41;6215908;23;20443;-90
2022/09/27 07:13:33;;;;;;;15.77;2.47;;;;;;;17.31;nan;101624.91;6190490;23;20906;-90
2022/09/27 07:16:10;;;;;;;11.50;2.20;;;;;;;17.35;nan;101651.00;6167967;23;20481;-90
2022/09/27 07:18:42;;;;;;;9.13;1.40;;;;;;;17.31;nan;101647.00;6191546;23;20407;-88
2022/09/27 07:21:12;;;;;;;9.87;2.10;;;;;;;17.33;nan;101650.38;6166464;23;20416;-88
2022/09/27 07:23:40;;;;;;;10.80;2.00;;;;;;;17.36;nan;101638.88;6191588;23;20486;-88
2022/09/27 07:26:10;;;;;;;12.83;2.07;;;;;;;17.41;nan;101658.44;6166766;23;20408;-88
2022/09/27 07:28:40;;;;;;;10.20;1.70;;;;;;;17.46;nan;101659.50;6216345;23;20770;-88
2022/09/27 07:31:08;;;;;;;13.80;2.20;;;;;;;17.52;nan;101666.06;6191219;23;20439;-88
2022/09/27 07:33:36;;;;;;;9.33;1.80;;;;;;;17.54;nan;101674.97;6166661;23;20490;-88
2022/09/27 07:36:10;;;;;;;15.57;3.73;;;;;;;17.56;nan;101670.94;6168382;23;20820;-88
2022/09/27 07:38:38;;;;;;;9.57;2.03;;;;;;;17.58;nan;101682.63;6167232;23;20395;-89
2022/09/27 07:41:15;;;;;;;9.43;1.90;;;;;;;17.70;nan;101670.94;6166676;23;20384;-88
2022/09/27 07:43:44;;;;;;;13.73;3.10;;;;;;;17.73;nan;101674.09;6168516;23;20482;-88
2022/09/27 07:46:13;;;;;;;14.70;2.47;;;;;;;17.74;nan;101670.28;6220538;23;20818;-88
2022/09/27 07:48:42;;;;;;;15.03;2.50;;;;;;;17.83;nan;101679.19;6196482;23;20403;-89
2022/09/27 07:51:11;;;;;;;8.53;2.30;;;;;;;17.81;nan;101668.34;6171021;23;20434;-88
2022/09/27 07:53:39;;;;;;;10.30;2.47;;;;;;;17.84;nan;101669.81;6196152;23;20794;-87
2022/09/27 07:56:08;;;;;;;17.67;3.20;;;;;;;17.93;nan;101683.16;6196547;23;20482;-89
2022/09/27 07:58:37;;;;;;;15.73;3.63;;;;;;;17.95;nan;101671.88;6172250;23;20482;-88
2022/09/27 08:01:06;;;;;;;9.80;2.17;;;;;;;18.04;nan;101678.03;6171255;23;20395;-89
2022/09/27 08:03:37;;;;;;;17.77;2.20;;;;;;;18.06;nan;101686.97;6196813;23;20474;-89
2022/09/27 08:06:17;;;;;;;15.97;2.70;;;;;;;18.17;nan;101683.50;6195500;23;20922;-89
2022/09/27 08:08:46;;;;;;;19.77;3.40;;;;;;;18.12;nan;101678.59;6220149;23;20468;-88
2022/09/27 08:11:15;;;;;;;18.27;2.57;;;;;;;18.20;nan;101688.59;6171696;23;20438;-88
2022/09/27 08:13:44;;;;;;;26.63;2.70;;;;;;;18.25;nan;101699.84;6171204;23;20406;-87
2022/09/27 08:16:14;;;;;;;9.33;2.20;;;;;;;18.32;nan;101702.56;6195599;23;20407;-88
2022/09/27 08:18:42;;;;;;;17.73;2.60;;;;;;;18.37;nan;101689.75;6171882;23;20383;-88
2022/09/27 08:21:10;;;;;;;15.10;2.87;;;;;;;18.45;nan;101700.59;6171232;23;20402;-89
2022/09/27 08:23:38;;;;;;;11.67;2.40;;;;;;;18.48;nan;101711.19;6100396;23;20410;-88
2022/09/27 08:26:05;;;;;;;11.50;2.93;;;;;;;18.57;nan;101692.41;6053415;23;20401;-89
2022/09/27 08:28:34;;;;;;;16.63;2.73;;;;;;;18.62;nan;101704.53;6101074;23;20454;-88
2022/09/27 08:31:02;;;;;;;13.93;3.40;;;;;;;18.68;nan;101699.16;6052930;23;20442;-89
2022/09/27 08:33:29;;;;;;;15.03;2.63;;;;;;;18.68;nan;101701.94;6053574;23;20425;-88
2022/09/27 08:36:00;;;;;;;9.10;2.37;;;;;;;18.81;nan;101710.16;6101575;23;20411;-89
2022/09/27 08:38:28;;;;;;;11.30;1.90;;;;;;;18.89;nan;101715.41;6053792;23;20387;-91
2022/09/27 08:41:06;;;;;;;10.30;1.83;;;;;;;18.92;nan;101717.72;6077503;23;20461;-89
2022/09/27 08:44:06;;;;;;;18.30;2.90;;;;;;;18.99;nan;101721.31;6101351;23;20522;-91
2022/09/27 08:47:10;;;;;;;8.57;2.40;;;;;;;19.08;nan;101736.56;6043442;23;20818;-87
2022/09/27 08:50:14;;;;;;;16.23;2.47;;;;;;;19.15;nan;101726.28;6080372;23;20413;-88
2022/09/27 08:53:04;;;;;;;12.40;1.90;;;;;;;19.20;nan;101732.00;6123975;23;20410;-89
2022/09/27 08:55:37;;;;;;;14.30;1.73;;;;;;;19.26;nan;101739.41;6124547;23;20395;-88
2022/09/27 08:58:31;;;;;;;12.33;2.40;;;;;;;19.32;nan;101738.50;6099698;23;20414;-88
2022/09/27 09:01:02;;;;;;;14.13;2.17;;;;;;;19.45;nan;101739.44;6121872;23;20417;-88
2022/09/27 09:03:58;;;;;;;13.40;2.60;;;;;;;19.52;nan;101740.25;6077147;23;20779;-88
2022/09/27 09:06:36;;;;;;;10.67;2.23;;;;;;;19.57;nan;101748.75;6099795;23;20429;-88
2022/09/27 09:09:19;;;;;;;11.90;2.43;;;;;;;19.65;nan;101740.97;6123664;23;20473;-87
2022/09/27 09:14:58;;;;;;;13.27;2.10;;;;;;;19.85;nan;101739.91;6216590;23;20407;-87
2022/09/27 09:17:35;;;;;;;11.90;2.67;;;;;;;19.87;nan;101744.13;6190585;23;20414;-87
2022/09/27 09:20:38;;;;;;;11.40;2.00;;;;;;;19.98;nan;101740.63;6166046;23;20395;-87
2022/09/27 09:23:38;;;;;;;12.13;2.00;;;;;;;20.13;nan;101742.13;6146174;23;20909;-87
2022/09/27 09:26:17;;;;;;;14.77;3.30;;;;;;;20.19;nan;101749.53;6136459;23;20407;-88
2022/09/27 09:28:59;;;;;;;8.47;1.77;;;;;;;20.25;nan;101743.03;6165556;23;20766;-87
2022/09/27 09:31:46;;;;;;;6.87;1.83;;;;;;;20.34;nan;101744.44;6190384;23;20442;-87
2022/09/27 09:34:32;;;;;;;13.67;2.90;;;;;;;20.34;nan;101739.72;6216072;23;20411;-88
2022/09/27 09:37:11;;;;;;;12.23;2.43;;;;;;;20.45;nan;101732.53;6167756;23;20738;-87
2022/09/27 09:39:46;;;;;;;13.63;2.40;;;;;;;20.54;nan;101747.81;6191135;23;20418;-87
2022/09/27 09:42:18;;;;;;;12.70;2.27;;;;;;;20.61;nan;101744.91;6141778;23;20399;-87
2022/09/27 09:44:46;;;;;;;16.20;2.73;;;;;;;20.65;nan;101743.38;6190128;23;20396;-88
2022/09/27 09:47:22;;;;;;;10.10;3.00;;;;;;;20.76;nan;101750.06;6214936;23;20431;-87
2022/09/27 09:49:54;;;;;;;12.50;2.50;;;;;;;20.86;nan;101744.75;6246003;23;20407;-88
2022/09/27 09:52:23;;;;;;;14.70;2.60;;;;;;;20.86;nan;101741.97;6219845;23;20505;-87
2022/09/27 09:54:58;;;;;;;8.20;2.10;;;;;;;20.94;nan;101744.44;6195576;23;20402;-87
2022/09/27 09:57:42;;;;;;;13.23;2.30;;;;;;;21.02;nan;101764.38;6220637;23;20409;-87
2022/09/27 10:00:14;;;;;;;12.20;2.17;;;;;;;21.04;nan;101761.38;6197443;23;20854;-87
2022/09/27 10:02:45;;;;;;;13.03;2.53;;;;;;;21.15;nan;101768.91;6171549;23;20532;-86
2022/09/27 10:05:15;;;;;;;14.50;2.53;;;;;;;21.19;nan;101770.09;6171391;23;20391;-87
2022/09/27 10:07:44;;;;;;;11.83;2.80;;;;;;;21.24;nan;101741.59;6170940;23;20470;-88
2022/09/27 10:10:14;;;;;;;13.03;2.70;;;;;;;21.32;nan;101744.88;6194929;23;20901;-87
2022/09/27 10:12:44;;;;;;;12.43;1.80;;;;;;;21.45;nan;101762.44;6195509;23;20469;-88
2022/09/27 10:15:20;;;;;;;17.67;2.80;;;;;;;21.53;nan;101750.94;6128639;23;20416;-87
2022/09/27 10:17:49;;;;;;;11.00;2.93;;;;;;;21.54;nan;101752.66;6153446;23;20491;-87
2022/09/27 10:20:35;;;;;;;12.43;2.40;;;;;;;21.71;nan;101770.28;6105025;23;20795;-88
2022/09/27 10:23:15;;;;;;;8.60;1.80;;;;;;;21.74;nan;101752.28;6082237;23;20964;-87
2022/09/27 10:25:48;;;;;;;12.90;2.40;;;;;;;21.85;nan;101756.97;6108170;23;20409;-87
2022/09/27 10:28:36;;;;;;;15.07;3.30;;;;;;;21.97;nan;101777.28;6128864;23;20408;-87
2022/09/27 10:31:06;;;;;;;13.33;3.33;;;;;;;22.05;nan;101769.44;6129310;23;20437;-87
2022/09/27 10:33:50;;;;;;;9.60;1.80;;;;;;;22.15;nan;101779.94;6169695;23;20402;-87
2022/09/27 10:36:24;;;;;;;9.87;2.93;;;;;;;22.22;nan;101771.47;6197541;23;20410;-87
2022/09/27 10:38:57;;;;;;;14.73;2.30;;;;;;;22.27;nan;101782.72;6170788;23;20406;-87
2022/09/27 10:41:36;;;;;;;13.90;2.90;;;;;;;22.22;nan;101769.50;6219996;23;20410;-87
2022/09/27 10:44:18;;;;;;;11.60;2.53;;;;;;;22.28;nan;101782.47;6220648;23;20410;-87
2022/09/27 10:46:48;;;;;;;10.63;2.73;;;;;;;22.34;nan;101766.69;6219178;23;20427;-88
2022/09/27 10:49:20;;;;;;;21.80;6.00;;;;;;;22.45;nan;101773.34;6170855;23;20972;-87
2022/09/27 10:51:56;;;;;;;9.67;3.37;;;;;;;22.55;nan;101774.38;6219779;23;20442;-88
2022/09/27 10:54:27;;;;;;;14.40;3.00;;;;;;;22.68;nan;101765.72;6194873;23;20405;-87
2022/09/27 10:57:03;;;;;;;14.03;3.10;;;;;;;22.75;nan;101785.91;6194842;23;20409;-88
2022/09/27 10:59:40;;;;;;;11.73;2.40;;;;;;;22.74;nan;101773.06;6172218;23;20398;-87
2022/09/27 11:02:22;;;;;;;12.97;2.17;;;;;;;22.80;nan;101776.84;6195812;23;20395;-88
2022/09/27 11:05:12;;;;;;;17.13;2.03;;;;;;;22.89;nan;101774.50;6194718;23;20410;-87
2022/09/27 11:07:49;;;;;;;5.60;1.80;;;;;;;22.94;nan;101777.38;6219921;23;20409;-88
2022/09/27 11:10:30;;;;;;;13.40;1.93;;;;;;;23.08;nan;101778.75;6171089;23;20398;-88
2022/09/27 11:13:31;;;;;;;10.63;2.23;;;;;;;23.15;nan;101776.63;6197803;23;20485;-87
2022/09/27 11:16:09;;;;;;;11.43;1.70;;;;;;;23.22;nan;101776.47;6245567;23;20406;-88
2022/09/27 11:18:56;;;;;;;9.40;1.77;;;;;;;23.36;nan;101767.50;6171736;23;20473;-88
2022/09/27 11:22:19;;;;;;;7.13;1.97;;;;;;;23.36;nan;101775.88;6219461;23;20395;-88
2022/09/27 11:25:17;;;;;;;8.87;1.73;;;;;;;23.38;nan;101778.44;6104957;23;20488;-88
2022/09/27 11:28:03;;;;;;;10.80;2.13;;;;;;;23.40;nan;101777.06;6153265;23;20449;-88
2022/09/27 11:30:47;;;;;;;16.03;1.93;;;;;;;23.42;nan;101763.72;6153035;23;20529;-86
2022/09/27 11:33:47;;;;;;;10.83;2.10;;;;;;;23.59;nan;101774.06;6132689;23;20536;-88
2022/09/27 11:36:32;;;;;;;7.70;2.00;;;;;;;23.64;nan;101776.94;6130704;23;20413;-88
2022/09/27 11:39:03;;;;;;;10.43;2.20;;;;;;;23.65;nan;101761.88;6109033;23;20745;-87
2022/09/27 11:42:44;;;;;;;6.70;1.70;;;;;;;23.70;nan;101761.94;6130806;23;20393;-87
2022/09/27 11:45:45;;;;;;;7.43;1.93;;;;;;;23.60;nan;101770.16;6038710;23;21086;-87
2022/09/27 11:49:09;;;;;;;11.53;1.73;;;;;;;23.69;nan;101744.34;6076296;23;20938;-87
2022/09/27 11:51:53;;;;;;;10.57;2.10;;;;;;;23.81;nan;101737.81;6072314;23;20514;-88
2022/09/27 11:55:02;;;;;;;8.60;2.10;;;;;;;24.00;nan;101736.41;6059232;23;20760;-88
2022/09/27 11:57:33;;;;;;;8.40;1.90;;;;;;;24.31;nan;101737.66;6120773;23;20913;-87
2022/09/27 12:00:09;;;;;;;4.57;1.43;;;;;;;24.40;nan;101724.91;6136621;23;20405;-88
2022/09/27 12:03:19;;;;;;;8.70;1.97;;;;;;;24.54;nan;101731.78;6184090;23;20408;-88
2022/09/27 12:05:55;;;;;;;9.23;2.60;;;;;;;24.66;nan;101726.03;6183942;23;20515;-88
2022/09/27 12:08:47;;;;;;;10.77;2.20;;;;;;;24.64;nan;101723.47;6184452;23;20519;-88
2022/09/27 12:11:29;;;;;;;7.30;1.63;;;;;;;24.70;nan;101725.22;6183802;23;20440;-88
2022/09/27 12:14:25;;;;;;;5.73;1.50;;;;;;;24.74;nan;101740.38;6184397;23;20536;-88
2022/09/27 12:16:53;;;;;;;12.43;2.00;;;;;;;24.77;nan;101728.66;6220269;23;20403;-88
2022/09/27 12:19:23;;;;;;;9.37;2.17;;;;;;;24.82;nan;101727.03;6196268;23;20715;-88
2022/09/27 12:21:53;;;;;;;7.80;2.43;;;;;;;24.83;nan;101718.34;6246869;23;20405;-88
2022/09/27 12:24:22;;;;;;;10.10;2.00;;;;;;;24.89;nan;101719.25;6196287;23;20912;-88
2022/09/27 12:26:58;;;;;;;11.40;1.87;;;;;;;25.02;nan;101718.84;6220795;23;20806;-88
2022/09/27 12:29:32;;;;;;;8.23;1.53;;;;;;;25.01;nan;101726.41;6172863;23;20399;-88
2022/09/27 12:32:20;;;;;;;7.80;2.50;;;;;;;24.94;nan;101708.13;6219949;23;20981;-88
2022/09/27 12:35:04;;;;;;;5.37;1.40;;;;;;;24.93;nan;101712.88;6220134;23;20897;-88
2022/09/27 12:37:48;;;;;;;10.10;1.70;;;;;;;24.99;nan;101711.00;6220261;23;20411;-88
2022/09/27 12:40:39;;;;;;;6.33;1.50;;;;;;;25.10;nan;101709.97;6220875;23;20410;-89
2022/09/27 12:43:26;;;;;;;2.90;1.20;;;;;;;25.34;nan;101718.84;6199502;23;20410;-88
2022/09/27 12:46:19;;;;;;;6.40;1.43;;;;;;;25.28;nan;101703.97;6171466;23;20509;-88
2022/09/27 12:49:14;;;;;;;5.80;1.70;;;;;;;25.30;nan;101710.13;6220753;23;20402;-89
2022/09/27 12:51:52;;;;;;;4.80;1.53;;;;;;;25.19;nan;101697.19;6220761;23;20509;-88
2022/09/27 12:54:54;;;;;;;10.20;1.83;;;;;;;25.22;nan;101693.81;6172846;23;20429;-88
2022/09/27 12:58:02;;;;;;;7.70;1.70;;;;;;;25.40;nan;101706.59;6200108;23;20409;-88
2022/09/27 13:00:54;;;;;;;8.70;2.20;;;;;;;25.58;nan;101702.50;6224956;23;20407;-88
2022/09/27 13:03:54;;;;;;;5.73;1.30;;;;;;;25.74;nan;101696.75;6199314;23;20520;-88
2022/09/27 13:06:47;;;;;;;5.67;1.47;;;;;;;25.88;nan;101699.88;6220786;23;20470;-88
2022/09/27 13:09:29;;;;;;;7.90;2.23;;;;;;;25.91;nan;101702.13;6246664;23;20403;-88
2022/09/27 13:12:11;;;;;;;12.93;1.90;;;;;;;25.91;nan;101696.53;6220285;23;20634;-88
2022/09/27 13:15:32;;;;;;;8.47;1.90;;;;;;;25.86;nan;101688.09;6219606;23;20398;-87
2022/09/27 13:18:04;;;;;;;9.90;1.93;;;;;;;25.68;nan;101688.56;6219425;23;20406;-88
2022/09/27 13:20:38;;;;;;;10.43;1.67;;;;;;;25.80;nan;101684.41;6196864;23;20411;-88
2022/09/27 13:23:15;;;;;;;9.10;1.90;;;;;;;25.86;nan;101679.69;6220264;23;20458;-88
2022/09/27 13:25:55;;;;;;;7.80;2.20;;;;;;;25.90;nan;101686.44;6246313;23;20414;-88
2022/09/27 13:28:31;;;;;;;12.23;1.73;;;;;;;25.92;nan;101675.81;6196173;23;20399;-88
2022/09/27 13:31:01;;;;;;;6.90;2.27;;;;;;;25.78;nan;101677.44;6220134;23;20391;-88
2022/09/27 13:33:40;;;;;;;14.00;2.60;;;;;;;25.80;nan;101672.38;6171814;23;20490;-88
2022/09/27 13:36:23;;;;;;;6.60;1.90;;;;;;;25.79;nan;101677.13;6220701;23;20485;-88
2022/09/27 13:39:13;;;;;;;7.70;2.00;;;;;;;25.78;nan;101652.22;6219374;23;20485;-88
2022/09/27 13:41:43;;;;;;;12.10;2.10;;;;;;;25.76;nan;101657.25;6197127;23;20482;-88
2022/09/27 13:44:35;;;;;;;7.70;1.50;;;;;;;25.72;nan;101675.72;6220147;23;20414;-88
2022/09/27 13:47:24;;;;;;;13.00;2.30;;;;;;;25.80;nan;101662.00;6199147;23;20434;-88
2022/09/27 13:50:16;;;;;;;7.80;1.70;;;;;;;25.91;nan;101673.28;6189962;23;20480;-88
2022/09/27 13:53:02;;;;;;;17.60;2.63;;;;;;;25.93;nan;101671.91;6194277;23;20518;-88
2022/09/27 13:55:40;;;;;;;13.23;2.37;;;;;;;25.81;nan;101668.47;6166568;23;21025;-88
2022/09/27 13:58:42;;;;;;;5.80;1.80;;;;;;;25.72;nan;101656.09;6164928;23;20407;-88
2022/09/27 14:01:33;;;;;;;8.90;2.60;;;;;;;25.80;nan;101649.97;6189370;23;20455;-87
2022/09/27 14:04:14;;;;;;;7.37;2.33;;;;;;;25.82;nan;101653.34;6190337;23;20407;-87
2022/09/27 14:06:44;;;;;;;7.50;1.77;;;;;;;25.73;nan;101655.84;6166283;23;20905;-88
2022/09/27 14:09:35;;;;;;;11.23;2.10;;;;;;;25.78;nan;101666.22;6141658;23;20407;-87
2022/09/27 14:12:33;;;;;;;13.70;2.47;;;;;;;25.74;nan;101667.88;6168721;23;20767;-87
2022/09/27 14:15:03;;;;;;;7.27;2.00;;;;;;;25.71;nan;101663.66;6185686;23;20482;-88
2022/09/27 14:17:32;;;;;;;7.80;2.03;;;;;;;25.72;nan;101661.72;6140683;23;20758;-88
2022/09/27 14:20:02;;;;;;;8.17;1.67;;;;;;;25.81;nan;101669.31;6189214;23;20414;-89
2022/09/27 14:22:30;;;;;;;9.73;1.73;;;;;;;25.77;nan;101656.13;6215348;23;20426;-88
2022/09/27 14:24:59;;;;;;;9.97;1.77;;;;;;;25.79;nan;101653.88;6140571;23;20411;-88
2022/09/27 14:27:28;;;;;;;6.00;1.17;;;;;;;25.88;nan;101654.22;6165155;23;20411;-88
2022/09/27 14:30:07;;;;;;;6.10;2.10;;;;;;;25.79;nan;101654.72;6140576;23;20412;-87
2022/09/27 14:32:47;;;;;;;10.43;2.40;;;;;;;25.70;nan;101666.75;6142607;23;20522;-88
2022/09/27 14:38:11;;;;;;;16.20;1.60;;;;;;;25.55;nan;101680.63;6173443;23;20407;-88
2022/09/27 14:41:02;;;;;;;5.73;1.47;;;;;;;25.39;nan;101663.75;6153781;23;20400;-87